sensor_id;sensor_type;location;lat;lon;timestamp;P1;durP1;ratioP1;P2;durP2;ratioP2
77298;SDS011;66361;52.034;20.656;2024-02-16T00:01:29;21.98;;;10.63;;
77298;SDS011;66361;52.034;20.656;2024-02-16T00:05:13;16.23;;;9.93;;
77298;SDS011;66361;52.034;20.656;2024-02-16T00:08:57;21.73;;;10.73;;
77298;SDS011;66361;52.034;20.656;2024-02-16T00:12:41;17.38;;;9.65;;
77298;SDS011;66361;52.034;20.656;2024-02-16T00:16:26;20.60;;;9.95;;
77298;SDS011;66361;52.034;20.656;2024-02-16T00:20:10;19.95;;;9.90;;
77298;SDS011;66361;52.034;20.656;2024-02-16T00:27:39;19.63;;;9.13;;
77298;SDS011;66361;52.034;20.656;2024-02-16T00:31:23;20.65;;;9.90;;
77298;SDS011;66361;52.034;20.656;2024-02-16T00:35:08;18.73;;;9.60;;
77298;SDS011;66361;52.034;20.656;2024-02-16T00:38:53;18.17;;;10.50;;
77298;SDS011;66361;52.034;20.656;2024-02-16T00:42:37;17.92;;;9.55;;
77298;SDS011;66361;52.034;20.656;2024-02-16T00:46:22;19.13;;;10.52;;
77298;SDS011;66361;52.034;20.656;2024-02-16T00:50:06;18.23;;;9.95;;
77298;SDS011;66361;52.034;20.656;2024-02-16T00:53:53;17.90;;;9.70;;
77298;SDS011;66361;52.034;20.656;2024-02-16T00:57:37;14.75;;;8.20;;
77298;SDS011;66361;52.034;20.656;2024-02-16T01:01:21;14.98;;;8.70;;
77298;SDS011;66361;52.034;20.656;2024-02-16T01:05:07;17.60;;;10.50;;
77298;SDS011;66361;52.034;20.656;2024-02-16T01:08:55;19.08;;;10.68;;
77298;SDS011;66361;52.034;20.656;2024-02-16T01:12:39;19.15;;;11.05;;
77298;SDS011;66361;52.034;20.656;2024-02-16T01:16:23;16.98;;;9.88;;
77298;SDS011;66361;52.034;20.656;2024-02-16T01:20:07;19.88;;;10.57;;
77298;SDS011;66361;52.034;20.656;2024-02-16T01:23:56;18.00;;;10.13;;
77298;SDS011;66361;52.034;20.656;2024-02-16T01:27:41;20.98;;;10.32;;
77298;SDS011;66361;52.034;20.656;2024-02-16T01:31:25;19.23;;;11.55;;
77298;SDS011;66361;52.034;20.656;2024-02-16T01:35:09;17.83;;;11.45;;
77298;SDS011;66361;52.034;20.656;2024-02-16T01:38:57;18.75;;;10.65;;
77298;SDS011;66361;52.034;20.656;2024-02-16T01:42:48;18.40;;;11.15;;
77298;SDS011;66361;52.034;20.656;2024-02-16T01:46:32;15.27;;;8.85;;
77298;SDS011;66361;52.034;20.656;2024-02-16T01:50:20;17.67;;;10.25;;
77298;SDS011;66361;52.034;20.656;2024-02-16T01:54:06;16.48;;;8.70;;
77298;SDS011;66361;52.034;20.656;2024-02-16T01:57:50;17.63;;;10.75;;
77298;SDS011;66361;52.034;20.656;2024-02-16T02:01:34;19.98;;;11.00;;
77298;SDS011;66361;52.034;20.656;2024-02-16T02:05:20;16.35;;;9.45;;
77298;SDS011;66361;52.034;20.656;2024-02-16T02:09:04;22.80;;;11.38;;
77298;SDS011;66361;52.034;20.656;2024-02-16T02:12:49;20.35;;;11.13;;
77298;SDS011;66361;52.034;20.656;2024-02-16T02:16:33;17.70;;;10.82;;
77298;SDS011;66361;52.034;20.656;2024-02-16T02:20:32;17.35;;;9.55;;
77298;SDS011;66361;52.034;20.656;2024-02-16T02:24:18;19.73;;;10.13;;
77298;SDS011;66361;52.034;20.656;2024-02-16T02:28:03;19.77;;;11.13;;
77298;SDS011;66361;52.034;20.656;2024-02-16T02:35:31;17.55;;;10.32;;
77298;SDS011;66361;52.034;20.656;2024-02-16T02:39:15;18.30;;;10.43;;
77298;SDS011;66361;52.034;20.656;2024-02-16T02:43:00;16.92;;;9.40;;
77298;SDS011;66361;52.034;20.656;2024-02-16T02:46:46;16.45;;;10.30;;
77298;SDS011;66361;52.034;20.656;2024-02-16T02:50:30;13.93;;;9.63;;
77298;SDS011;66361;52.034;20.656;2024-02-16T02:54:14;16.33;;;10.15;;
77298;SDS011;66361;52.034;20.656;2024-02-16T02:57:58;17.42;;;10.35;;
77298;SDS011;66361;52.034;20.656;2024-02-16T03:01:44;16.95;;;9.93;;
77298;SDS011;66361;52.034;20.656;2024-02-16T03:05:28;20.60;;;9.98;;
77298;SDS011;66361;52.034;20.656;2024-02-16T03:09:12;18.73;;;10.63;;
77298;SDS011;66361;52.034;20.656;2024-02-16T03:12:56;18.13;;;10.80;;
77298;SDS011;66361;52.034;20.656;2024-02-16T03:16:40;18.02;;;10.60;;
77298;SDS011;66361;52.034;20.656;2024-02-16T03:20:26;16.08;;;9.20;;
77298;SDS011;66361;52.034;20.656;2024-02-16T03:24:12;15.90;;;10.27;;
77298;SDS011;66361;52.034;20.656;2024-02-16T03:27:56;20.85;;;10.55;;
77298;SDS011;66361;52.034;20.656;2024-02-16T03:31:40;19.52;;;11.02;;
77298;SDS011;66361;52.034;20.656;2024-02-16T03:35:23;22.20;;;10.02;;
77298;SDS011;66361;52.034;20.656;2024-02-16T03:39:10;17.00;;;9.65;;
77298;SDS011;66361;52.034;20.656;2024-02-16T03:42:54;18.27;;;10.80;;
77298;SDS011;66361;52.034;20.656;2024-02-16T03:46:39;18.02;;;9.95;;
77298;SDS011;66361;52.034;20.656;2024-02-16T03:50:23;17.67;;;9.93;;
77298;SDS011;66361;52.034;20.656;2024-02-16T03:54:07;17.73;;;11.68;;
77298;SDS011;66361;52.034;20.656;2024-02-16T03:57:53;20.70;;;11.20;;
77298;SDS011;66361;52.034;20.656;2024-02-16T04:01:36;21.73;;;11.75;;
77298;SDS011;66361;52.034;20.656;2024-02-16T04:05:20;19.27;;;11.35;;
77298;SDS011;66361;52.034;20.656;2024-02-16T04:09:04;19.13;;;10.10;;
77298;SDS011;66361;52.034;20.656;2024-02-16T04:12:50;20.00;;;11.98;;
77298;SDS011;66361;52.034;20.656;2024-02-16T04:16:35;21.88;;;10.95;;
77298;SDS011;66361;52.034;20.656;2024-02-16T04:24:03;18.05;;;9.80;;
77298;SDS011;66361;52.034;20.656;2024-02-16T04:27:48;19.38;;;9.98;;
77298;SDS011;66361;52.034;20.656;2024-02-16T04:31:32;19.35;;;13.15;;
77298;SDS011;66361;52.034;20.656;2024-02-16T04:35:17;21.23;;;11.32;;
77298;SDS011;66361;52.034;20.656;2024-02-16T04:39:01;17.88;;;10.82;;
77298;SDS011;66361;52.034;20.656;2024-02-16T04:42:45;20.35;;;11.32;;
77298;SDS011;66361;52.034;20.656;2024-02-16T04:46:29;16.00;;;11.00;;
77298;SDS011;66361;52.034;20.656;2024-02-16T04:50:15;19.73;;;10.10;;
77298;SDS011;66361;52.034;20.656;2024-02-16T04:54:00;19.73;;;10.90;;
77298;SDS011;66361;52.034;20.656;2024-02-16T04:57:46;18.88;;;10.07;;
77298;SDS011;66361;52.034;20.656;2024-02-16T05:01:30;20.10;;;11.18;;
77298;SDS011;66361;52.034;20.656;2024-02-16T05:05:14;18.65;;;10.55;;
77298;SDS011;66361;52.034;20.656;2024-02-16T05:08:57;22.13;;;11.15;;
77298;SDS011;66361;52.034;20.656;2024-02-16T05:12:43;16.77;;;10.13;;
77298;SDS011;66361;52.034;20.656;2024-02-16T05:16:27;19.25;;;10.60;;
77298;SDS011;66361;52.034;20.656;2024-02-16T05:20:12;16.88;;;9.48;;
77298;SDS011;66361;52.034;20.656;2024-02-16T05:23:58;22.25;;;12.70;;
77298;SDS011;66361;52.034;20.656;2024-02-16T05:27:43;19.00;;;10.95;;
77298;SDS011;66361;52.034;20.656;2024-02-16T05:31:28;17.88;;;10.45;;
77298;SDS011;66361;52.034;20.656;2024-02-16T05:35:13;19.90;;;10.88;;
77298;SDS011;66361;52.034;20.656;2024-02-16T05:38:58;21.58;;;10.57;;
77298;SDS011;66361;52.034;20.656;2024-02-16T05:42:53;20.55;;;10.40;;
77298;SDS011;66361;52.034;20.656;2024-02-16T05:46:39;19.20;;;10.88;;
77298;SDS011;66361;52.034;20.656;2024-02-16T05:50:23;19.25;;;9.73;;
77298;SDS011;66361;52.034;20.656;2024-02-16T05:54:07;20.67;;;10.85;;
77298;SDS011;66361;52.034;20.656;2024-02-16T05:57:54;21.67;;;11.18;;
77298;SDS011;66361;52.034;20.656;2024-02-16T06:01:39;15.30;;;10.65;;
77298;SDS011;66361;52.034;20.656;2024-02-16T06:05:23;19.23;;;11.95;;
77298;SDS011;66361;52.034;20.656;2024-02-16T06:09:07;23.27;;;11.85;;
77298;SDS011;66361;52.034;20.656;2024-02-16T06:12:50;23.10;;;10.55;;
77298;SDS011;66361;52.034;20.656;2024-02-16T06:16:35;19.48;;;11.70;;
77298;SDS011;66361;52.034;20.656;2024-02-16T06:24:03;14.77;;;9.88;;
77298;SDS011;66361;52.034;20.656;2024-02-16T06:27:47;18.83;;;11.43;;
77298;SDS011;66361;52.034;20.656;2024-02-16T06:31:32;21.98;;;11.40;;
77298;SDS011;66361;52.034;20.656;2024-02-16T06:35:17;23.65;;;12.10;;
77298;SDS011;66361;52.034;20.656;2024-02-16T06:39:01;23.25;;;12.55;;
77298;SDS011;66361;52.034;20.656;2024-02-16T06:42:45;26.13;;;12.00;;
77298;SDS011;66361;52.034;20.656;2024-02-16T06:46:29;15.65;;;9.52;;
77298;SDS011;66361;52.034;20.656;2024-02-16T06:50:13;27.63;;;13.13;;
77298;SDS011;66361;52.034;20.656;2024-02-16T06:53:59;19.08;;;10.52;;
77298;SDS011;66361;52.034;20.656;2024-02-16T06:57:43;21.13;;;12.55;;
77298;SDS011;66361;52.034;20.656;2024-02-16T07:01:27;18.48;;;10.15;;
77298;SDS011;66361;52.034;20.656;2024-02-16T07:05:11;21.90;;;12.45;;
77298;SDS011;66361;52.034;20.656;2024-02-16T07:08:56;21.45;;;13.07;;
77298;SDS011;66361;52.034;20.656;2024-02-16T07:12:41;18.77;;;10.40;;
77298;SDS011;66361;52.034;20.656;2024-02-16T07:16:27;19.70;;;12.07;;
77298;SDS011;66361;52.034;20.656;2024-02-16T07:20:12;19.15;;;11.65;;
77298;SDS011;66361;52.034;20.656;2024-02-16T07:23:57;21.88;;;13.15;;
77298;SDS011;66361;52.034;20.656;2024-02-16T07:27:43;23.52;;;11.80;;
77298;SDS011;66361;52.034;20.656;2024-02-16T07:31:30;20.80;;;11.98;;
77298;SDS011;66361;52.034;20.656;2024-02-16T07:35:15;20.27;;;11.63;;
77298;SDS011;66361;52.034;20.656;2024-02-16T07:39:03;16.77;;;9.52;;
77298;SDS011;66361;52.034;20.656;2024-02-16T07:42:49;19.10;;;12.13;;
77298;SDS011;66361;52.034;20.656;2024-02-16T07:46:32;20.63;;;11.52;;
77298;SDS011;66361;52.034;20.656;2024-02-16T07:50:18;23.05;;;13.60;;
77298;SDS011;66361;52.034;20.656;2024-02-16T07:54:02;16.85;;;10.35;;
77298;SDS011;66361;52.034;20.656;2024-02-16T07:57:47;17.60;;;10.95;;
77298;SDS011;66361;52.034;20.656;2024-02-16T08:01:32;20.27;;;13.27;;
77298;SDS011;66361;52.034;20.656;2024-02-16T08:05:15;21.40;;;11.60;;
77298;SDS011;66361;52.034;20.656;2024-02-16T08:09:01;16.05;;;11.18;;
77298;SDS011;66361;52.034;20.656;2024-02-16T08:12:46;15.38;;;10.27;;
77298;SDS011;66361;52.034;20.656;2024-02-16T08:16:31;17.58;;;11.45;;
77298;SDS011;66361;52.034;20.656;2024-02-16T08:20:16;21.08;;;11.38;;
77298;SDS011;66361;52.034;20.656;2024-02-16T08:24:00;14.50;;;10.02;;
77298;SDS011;66361;52.034;20.656;2024-02-16T08:27:44;17.48;;;9.82;;
77298;SDS011;66361;52.034;20.656;2024-02-16T08:31:28;15.43;;;9.63;;
77298;SDS011;66361;52.034;20.656;2024-02-16T08:35:13;16.70;;;11.40;;
77298;SDS011;66361;52.034;20.656;2024-02-16T08:38:59;17.65;;;11.00;;
77298;SDS011;66361;52.034;20.656;2024-02-16T08:42:43;15.45;;;9.30;;
77298;SDS011;66361;52.034;20.656;2024-02-16T08:46:27;18.30;;;10.98;;
77298;SDS011;66361;52.034;20.656;2024-02-16T08:53:57;18.23;;;10.93;;
77298;SDS011;66361;52.034;20.656;2024-02-16T08:57:41;17.33;;;10.48;;
77298;SDS011;66361;52.034;20.656;2024-02-16T09:01:31;15.20;;;10.18;;
77298;SDS011;66361;52.034;20.656;2024-02-16T09:05:15;16.20;;;9.43;;
77298;SDS011;66361;52.034;20.656;2024-02-16T09:09:00;12.50;;;8.13;;
77298;SDS011;66361;52.034;20.656;2024-02-16T09:12:44;16.85;;;10.48;;
77298;SDS011;66361;52.034;20.656;2024-02-16T09:16:28;17.98;;;10.50;;
77298;SDS011;66361;52.034;20.656;2024-02-16T09:23:56;15.13;;;9.70;;
77298;SDS011;66361;52.034;20.656;2024-02-16T09:27:45;18.30;;;10.35;;
77298;SDS011;66361;52.034;20.656;2024-02-16T09:31:29;15.63;;;9.90;;
77298;SDS011;66361;52.034;20.656;2024-02-16T09:35:13;13.98;;;9.68;;
77298;SDS011;66361;52.034;20.656;2024-02-16T09:38:57;17.02;;;10.77;;
77298;SDS011;66361;52.034;20.656;2024-02-16T09:42:40;17.50;;;10.40;;
77298;SDS011;66361;52.034;20.656;2024-02-16T09:46:26;20.17;;;10.77;;
77298;SDS011;66361;52.034;20.656;2024-02-16T09:50:10;17.73;;;10.40;;
77298;SDS011;66361;52.034;20.656;2024-02-16T09:53:55;19.80;;;11.05;;
77298;SDS011;66361;52.034;20.656;2024-02-16T09:57:41;14.95;;;9.93;;
77298;SDS011;66361;52.034;20.656;2024-02-16T10:01:27;14.82;;;9.73;;
77298;SDS011;66361;52.034;20.656;2024-02-16T10:05:13;17.80;;;11.05;;
77298;SDS011;66361;52.034;20.656;2024-02-16T10:08:58;16.73;;;10.85;;
77298;SDS011;66361;52.034;20.656;2024-02-16T10:12:48;17.92;;;9.90;;
77298;SDS011;66361;52.034;20.656;2024-02-16T10:16:33;18.20;;;10.63;;
77298;SDS011;66361;52.034;20.656;2024-02-16T10:20:18;18.73;;;11.48;;
77298;SDS011;66361;52.034;20.656;2024-02-16T10:24:02;17.98;;;11.18;;
77298;SDS011;66361;52.034;20.656;2024-02-16T10:27:50;17.13;;;10.98;;
77298;SDS011;66361;52.034;20.656;2024-02-16T10:31:38;18.88;;;11.15;;
77298;SDS011;66361;52.034;20.656;2024-02-16T10:35:24;15.77;;;10.50;;
77298;SDS011;66361;52.034;20.656;2024-02-16T10:39:08;17.88;;;10.18;;
77298;SDS011;66361;52.034;20.656;2024-02-16T10:42:54;16.30;;;9.32;;
77298;SDS011;66361;52.034;20.656;2024-02-16T10:46:40;17.40;;;9.77;;
77298;SDS011;66361;52.034;20.656;2024-02-16T10:50:23;16.95;;;7.70;;
77298;SDS011;66361;52.034;20.656;2024-02-16T10:54:07;17.55;;;10.35;;
77298;SDS011;66361;52.034;20.656;2024-02-16T10:57:52;19.27;;;11.07;;
77298;SDS011;66361;52.034;20.656;2024-02-16T11:01:38;18.63;;;11.65;;
77298;SDS011;66361;52.034;20.656;2024-02-16T11:05:31;17.65;;;13.20;;
77298;SDS011;66361;52.034;20.656;2024-02-16T11:09:34;20.48;;;11.98;;
77298;SDS011;66361;52.034;20.656;2024-02-16T11:13:21;21.83;;;11.50;;
77298;SDS011;66361;52.034;20.656;2024-02-16T11:17:08;18.02;;;11.23;;
77298;SDS011;66361;52.034;20.656;2024-02-16T11:20:53;17.70;;;10.30;;
77298;SDS011;66361;52.034;20.656;2024-02-16T11:24:42;16.40;;;10.00;;
77298;SDS011;66361;52.034;20.656;2024-02-16T11:28:27;15.98;;;9.05;;
77298;SDS011;66361;52.034;20.656;2024-02-16T11:32:12;16.10;;;10.02;;
77298;SDS011;66361;52.034;20.656;2024-02-16T11:35:57;18.95;;;11.40;;
77298;SDS011;66361;52.034;20.656;2024-02-16T11:39:41;10.40;;;7.20;;
77298;SDS011;66361;52.034;20.656;2024-02-16T11:43:27;17.25;;;10.35;;
77298;SDS011;66361;52.034;20.656;2024-02-16T11:51:04;14.25;;;9.02;;
77298;SDS011;66361;52.034;20.656;2024-02-16T11:54:48;13.55;;;8.48;;
77298;SDS011;66361;52.034;20.656;2024-02-16T11:58:32;16.10;;;9.25;;
77298;SDS011;66361;52.034;20.656;2024-02-16T12:02:18;16.25;;;9.77;;
77298;SDS011;66361;52.034;20.656;2024-02-16T12:06:04;13.75;;;7.93;;
77298;SDS011;66361;52.034;20.656;2024-02-16T12:09:54;13.25;;;8.27;;
77298;SDS011;66361;52.034;20.656;2024-02-16T12:17:24;17.55;;;7.47;;
77298;SDS011;66361;52.034;20.656;2024-02-16T12:21:08;11.20;;;7.45;;
77298;SDS011;66361;52.034;20.656;2024-02-16T12:24:52;12.32;;;8.27;;
77298;SDS011;66361;52.034;20.656;2024-02-16T12:28:36;13.98;;;8.38;;
77298;SDS011;66361;52.034;20.656;2024-02-16T12:32:19;12.82;;;8.40;;
77298;SDS011;66361;52.034;20.656;2024-02-16T12:36:05;18.45;;;10.68;;
77298;SDS011;66361;52.034;20.656;2024-02-16T12:39:49;15.50;;;8.90;;
77298;SDS011;66361;52.034;20.656;2024-02-16T12:43:32;12.27;;;7.50;;
77298;SDS011;66361;52.034;20.656;2024-02-16T12:47:16;13.80;;;7.88;;
77298;SDS011;66361;52.034;20.656;2024-02-16T12:51:00;14.70;;;8.98;;
77298;SDS011;66361;52.034;20.656;2024-02-16T12:54:45;12.75;;;7.00;;
77298;SDS011;66361;52.034;20.656;2024-02-16T12:58:29;11.45;;;7.80;;
77298;SDS011;66361;52.034;20.656;2024-02-16T13:02:14;13.27;;;8.90;;
77298;SDS011;66361;52.034;20.656;2024-02-16T13:05:58;13.68;;;8.00;;
77298;SDS011;66361;52.034;20.656;2024-02-16T13:09:46;14.45;;;8.20;;
77298;SDS011;66361;52.034;20.656;2024-02-16T13:13:32;12.55;;;8.95;;
77298;SDS011;66361;52.034;20.656;2024-02-16T13:17:16;13.57;;;8.57;;
77298;SDS011;66361;52.034;20.656;2024-02-16T13:21:00;10.77;;;7.53;;
77298;SDS011;66361;52.034;20.656;2024-02-16T13:24:45;13.70;;;7.40;;
77298;SDS011;66361;52.034;20.656;2024-02-16T13:28:29;10.77;;;8.02;;
77298;SDS011;66361;52.034;20.656;2024-02-16T13:32:13;13.50;;;7.55;;
77298;SDS011;66361;52.034;20.656;2024-02-16T13:35:56;14.02;;;9.27;;
77298;SDS011;66361;52.034;20.656;2024-02-16T13:39:40;14.82;;;10.82;;
77298;SDS011;66361;52.034;20.656;2024-02-16T13:43:25;15.68;;;8.77;;
77298;SDS011;66361;52.034;20.656;2024-02-16T13:47:10;14.60;;;8.77;;
77298;SDS011;66361;52.034;20.656;2024-02-16T13:50:56;12.52;;;7.78;;
77298;SDS011;66361;52.034;20.656;2024-02-16T13:54:43;13.68;;;8.00;;
77298;SDS011;66361;52.034;20.656;2024-02-16T13:58:28;10.85;;;7.00;;
77298;SDS011;66361;52.034;20.656;2024-02-16T14:02:15;13.25;;;8.05;;
77298;SDS011;66361;52.034;20.656;2024-02-16T14:09:44;14.88;;;8.23;;
77298;SDS011;66361;52.034;20.656;2024-02-16T14:13:29;16.17;;;9.18;;
77298;SDS011;66361;52.034;20.656;2024-02-16T14:17:13;13.88;;;9.02;;
77298;SDS011;66361;52.034;20.656;2024-02-16T14:20:57;13.13;;;8.55;;
77298;SDS011;66361;52.034;20.656;2024-02-16T14:24:40;18.63;;;9.85;;
77298;SDS011;66361;52.034;20.656;2024-02-16T14:28:24;20.65;;;10.73;;
77298;SDS011;66361;52.034;20.656;2024-02-16T14:32:09;16.88;;;11.25;;
77298;SDS011;66361;52.034;20.656;2024-02-16T14:35:53;16.90;;;10.63;;
77298;SDS011;66361;52.034;20.656;2024-02-16T14:39:37;19.92;;;11.40;;
77298;SDS011;66361;52.034;20.656;2024-02-16T14:43:21;17.67;;;10.45;;
77298;SDS011;66361;52.034;20.656;2024-02-16T14:50:50;12.57;;;8.55;;
77298;SDS011;66361;52.034;20.656;2024-02-16T14:54:35;15.43;;;9.75;;
77298;SDS011;66361;52.034;20.656;2024-02-16T14:58:19;15.00;;;9.52;;
77298;SDS011;66361;52.034;20.656;2024-02-16T15:02:03;17.23;;;9.18;;
77298;SDS011;66361;52.034;20.656;2024-02-16T15:05:47;13.85;;;7.35;;
77298;SDS011;66361;52.034;20.656;2024-02-16T15:09:32;19.10;;;9.32;;
77298;SDS011;66361;52.034;20.656;2024-02-16T15:13:15;15.20;;;9.05;;
77298;SDS011;66361;52.034;20.656;2024-02-16T15:16:59;15.25;;;9.88;;
77298;SDS011;66361;52.034;20.656;2024-02-16T15:20:43;14.55;;;9.57;;
77298;SDS011;66361;52.034;20.656;2024-02-16T15:24:28;16.55;;;9.75;;
77298;SDS011;66361;52.034;20.656;2024-02-16T15:28:13;14.75;;;8.98;;
77298;SDS011;66361;52.034;20.656;2024-02-16T15:31:57;16.35;;;9.65;;
77298;SDS011;66361;52.034;20.656;2024-02-16T15:35:42;18.73;;;9.45;;
77298;SDS011;66361;52.034;20.656;2024-02-16T15:39:25;16.95;;;9.75;;
77298;SDS011;66361;52.034;20.656;2024-02-16T15:43:09;16.65;;;10.65;;
77298;SDS011;66361;52.034;20.656;2024-02-16T15:46:55;17.27;;;11.52;;
77298;SDS011;66361;52.034;20.656;2024-02-16T15:50:39;17.02;;;11.00;;
77298;SDS011;66361;52.034;20.656;2024-02-16T15:54:23;17.20;;;10.23;;
77298;SDS011;66361;52.034;20.656;2024-02-16T15:58:08;19.40;;;10.65;;
77298;SDS011;66361;52.034;20.656;2024-02-16T16:01:52;18.17;;;9.60;;
77298;SDS011;66361;52.034;20.656;2024-02-16T16:05:39;15.93;;;8.75;;
77298;SDS011;66361;52.034;20.656;2024-02-16T16:09:23;17.17;;;9.52;;
77298;SDS011;66361;52.034;20.656;2024-02-16T16:13:08;14.05;;;9.90;;
77298;SDS011;66361;52.034;20.656;2024-02-16T16:16:54;15.90;;;9.63;;
77298;SDS011;66361;52.034;20.656;2024-02-16T16:20:39;17.15;;;9.02;;
77298;SDS011;66361;52.034;20.656;2024-02-16T16:24:24;15.90;;;9.82;;
77298;SDS011;66361;52.034;20.656;2024-02-16T16:28:08;15.90;;;10.45;;
77298;SDS011;66361;52.034;20.656;2024-02-16T16:31:51;16.17;;;9.82;;
77298;SDS011;66361;52.034;20.656;2024-02-16T16:35:42;20.45;;;11.00;;
77298;SDS011;66361;52.034;20.656;2024-02-16T16:39:26;18.77;;;11.07;;
77298;SDS011;66361;52.034;20.656;2024-02-16T16:43:10;23.27;;;13.38;;
77298;SDS011;66361;52.034;20.656;2024-02-16T16:46:55;20.75;;;12.48;;
77298;SDS011;66361;52.034;20.656;2024-02-16T16:50:43;20.42;;;11.52;;
77298;SDS011;66361;52.034;20.656;2024-02-16T16:54:27;15.77;;;9.85;;
77298;SDS011;66361;52.034;20.656;2024-02-16T16:58:11;17.15;;;11.15;;
77298;SDS011;66361;52.034;20.656;2024-02-16T17:01:55;18.15;;;11.27;;
77298;SDS011;66361;52.034;20.656;2024-02-16T17:05:39;15.45;;;10.32;;
77298;SDS011;66361;52.034;20.656;2024-02-16T17:09:26;19.52;;;11.02;;
77298;SDS011;66361;52.034;20.656;2024-02-16T17:13:10;15.20;;;9.70;;
77298;SDS011;66361;52.034;20.656;2024-02-16T17:16:53;17.25;;;9.93;;
77298;SDS011;66361;52.034;20.656;2024-02-16T17:20:37;18.90;;;11.48;;
77298;SDS011;66361;52.034;20.656;2024-02-16T17:24:22;20.67;;;11.77;;
77298;SDS011;66361;52.034;20.656;2024-02-16T17:28:09;18.98;;;11.75;;
77298;SDS011;66361;52.034;20.656;2024-02-16T17:31:53;19.92;;;12.38;;
77298;SDS011;66361;52.034;20.656;2024-02-16T17:35:37;22.35;;;11.18;;
77298;SDS011;66361;52.034;20.656;2024-02-16T17:39:23;18.83;;;11.38;;
77298;SDS011;66361;52.034;20.656;2024-02-16T17:43:09;20.73;;;12.13;;
77298;SDS011;66361;52.034;20.656;2024-02-16T17:46:55;16.60;;;11.43;;
77298;SDS011;66361;52.034;20.656;2024-02-16T17:50:39;19.27;;;12.68;;
77298;SDS011;66361;52.034;20.656;2024-02-16T17:54:23;22.65;;;13.27;;
77298;SDS011;66361;52.034;20.656;2024-02-16T17:58:07;19.42;;;11.50;;
77298;SDS011;66361;52.034;20.656;2024-02-16T18:01:52;23.55;;;13.63;;
77298;SDS011;66361;52.034;20.656;2024-02-16T18:05:36;17.50;;;11.13;;
77298;SDS011;66361;52.034;20.656;2024-02-16T18:09:20;23.52;;;13.70;;
77298;SDS011;66361;52.034;20.656;2024-02-16T18:13:04;22.15;;;13.57;;
77298;SDS011;66361;52.034;20.656;2024-02-16T18:16:47;20.40;;;11.35;;
77298;SDS011;66361;52.034;20.656;2024-02-16T18:20:32;22.35;;;12.48;;
77298;SDS011;66361;52.034;20.656;2024-02-16T18:24:16;18.88;;;10.80;;
77298;SDS011;66361;52.034;20.656;2024-02-16T18:27:59;13.52;;;7.72;;
77298;SDS011;66361;52.034;20.656;2024-02-16T18:31:43;22.02;;;14.13;;
77298;SDS011;66361;52.034;20.656;2024-02-16T18:35:27;21.23;;;12.05;;
77298;SDS011;66361;52.034;20.656;2024-02-16T18:39:12;23.77;;;13.40;;
77298;SDS011;66361;52.034;20.656;2024-02-16T18:42:56;25.40;;;12.70;;
77298;SDS011;66361;52.034;20.656;2024-02-16T18:46:40;19.23;;;11.23;;
77298;SDS011;66361;52.034;20.656;2024-02-16T18:50:25;21.58;;;13.13;;
77298;SDS011;66361;52.034;20.656;2024-02-16T18:54:08;25.67;;;14.13;;
77298;SDS011;66361;52.034;20.656;2024-02-16T18:57:54;24.70;;;14.13;;
77298;SDS011;66361;52.034;20.656;2024-02-16T19:01:38;15.05;;;10.05;;
77298;SDS011;66361;52.034;20.656;2024-02-16T19:05:22;24.50;;;13.50;;
77298;SDS011;66361;52.034;20.656;2024-02-16T19:09:06;22.48;;;14.27;;
77298;SDS011;66361;52.034;20.656;2024-02-16T19:12:51;25.58;;;13.00;;
77298;SDS011;66361;52.034;20.656;2024-02-16T19:16:36;25.17;;;14.40;;
77298;SDS011;66361;52.034;20.656;2024-02-16T19:20:20;24.75;;;14.10;;
77298;SDS011;66361;52.034;20.656;2024-02-16T19:24:05;24.25;;;13.57;;
77298;SDS011;66361;52.034;20.656;2024-02-16T19:27:51;23.52;;;14.13;;
77298;SDS011;66361;52.034;20.656;2024-02-16T19:31:38;22.83;;;13.35;;
77298;SDS011;66361;52.034;20.656;2024-02-16T19:35:22;23.13;;;13.98;;
77298;SDS011;66361;52.034;20.656;2024-02-16T19:39:06;20.35;;;12.80;;
77298;SDS011;66361;52.034;20.656;2024-02-16T19:42:52;21.17;;;14.00;;
77298;SDS011;66361;52.034;20.656;2024-02-16T19:46:37;20.83;;;13.35;;
77298;SDS011;66361;52.034;20.656;2024-02-16T19:50:23;19.90;;;12.82;;
77298;SDS011;66361;52.034;20.656;2024-02-16T19:54:08;21.70;;;13.63;;
77298;SDS011;66361;52.034;20.656;2024-02-16T19:57:52;22.88;;;13.45;;
77298;SDS011;66361;52.034;20.656;2024-02-16T20:01:38;20.38;;;13.05;;
77298;SDS011;66361;52.034;20.656;2024-02-16T20:05:22;23.63;;;14.15;;
77298;SDS011;66361;52.034;20.656;2024-02-16T20:09:09;23.60;;;12.73;;
77298;SDS011;66361;52.034;20.656;2024-02-16T20:12:56;23.05;;;14.13;;
77298;SDS011;66361;52.034;20.656;2024-02-16T20:16:41;19.90;;;12.73;;
77298;SDS011;66361;52.034;20.656;2024-02-16T20:20:25;24.25;;;13.63;;
77298;SDS011;66361;52.034;20.656;2024-02-16T20:24:10;22.45;;;12.98;;
77298;SDS011;66361;52.034;20.656;2024-02-16T20:27:55;23.35;;;13.57;;
77298;SDS011;66361;52.034;20.656;2024-02-16T20:31:41;25.95;;;14.32;;
77298;SDS011;66361;52.034;20.656;2024-02-16T20:35:25;19.08;;;10.73;;
77298;SDS011;66361;52.034;20.656;2024-02-16T20:39:09;20.98;;;12.73;;
77298;SDS011;66361;52.034;20.656;2024-02-16T20:42:54;22.98;;;13.05;;
77298;SDS011;66361;52.034;20.656;2024-02-16T20:46:42;18.98;;;12.98;;
77298;SDS011;66361;52.034;20.656;2024-02-16T20:50:26;19.77;;;13.02;;
77298;SDS011;66361;52.034;20.656;2024-02-16T20:54:10;20.35;;;13.93;;
77298;SDS011;66361;52.034;20.656;2024-02-16T20:57:54;20.73;;;12.10;;
77298;SDS011;66361;52.034;20.656;2024-02-16T21:01:38;23.85;;;12.43;;
77298;SDS011;66361;52.034;20.656;2024-02-16T21:05:24;21.38;;;13.63;;
77298;SDS011;66361;52.034;20.656;2024-02-16T21:09:08;17.92;;;10.68;;
77298;SDS011;66361;52.034;20.656;2024-02-16T21:12:53;19.67;;;11.85;;
77298;SDS011;66361;52.034;20.656;2024-02-16T21:16:37;25.88;;;12.75;;
77298;SDS011;66361;52.034;20.656;2024-02-16T21:20:24;24.20;;;13.13;;
77298;SDS011;66361;52.034;20.656;2024-02-16T21:24:08;18.48;;;12.23;;
77298;SDS011;66361;52.034;20.656;2024-02-16T21:27:56;20.00;;;12.57;;
77298;SDS011;66361;52.034;20.656;2024-02-16T21:31:40;20.83;;;12.63;;
77298;SDS011;66361;52.034;20.656;2024-02-16T21:35:26;21.13;;;13.38;;
77298;SDS011;66361;52.034;20.656;2024-02-16T21:39:16;21.42;;;12.90;;
77298;SDS011;66361;52.034;20.656;2024-02-16T21:43:04;22.25;;;12.75;;
77298;SDS011;66361;52.034;20.656;2024-02-16T21:46:50;22.02;;;11.98;;
77298;SDS011;66361;52.034;20.656;2024-02-16T21:50:43;19.70;;;11.77;;
77298;SDS011;66361;52.034;20.656;2024-02-16T21:54:29;19.70;;;12.23;;
77298;SDS011;66361;52.034;20.656;2024-02-16T21:58:20;21.10;;;11.52;;
77298;SDS011;66361;52.034;20.656;2024-02-16T22:02:04;22.20;;;12.70;;
77298;SDS011;66361;52.034;20.656;2024-02-16T22:05:49;23.73;;;13.07;;
77298;SDS011;66361;52.034;20.656;2024-02-16T22:09:34;21.83;;;13.43;;
77298;SDS011;66361;52.034;20.656;2024-02-16T22:13:26;22.23;;;12.43;;
77298;SDS011;66361;52.034;20.656;2024-02-16T22:17:13;19.80;;;11.77;;
77298;SDS011;66361;52.034;20.656;2024-02-16T22:20:58;24.77;;;12.57;;